Hauptseite
METAR-TAF:

METAR-TAF

Flughäfen :

Kbely

Prag, Tschechien

Breite: 50-07-17N, Länge: 14-32-37E, Höhe: 286 m

Beobachtung

Neuester Wetterbericht von vor 12 Minuten, um 19:30 UTC
Wind 1 kt aus Südost
Temperatur 19°C
Luftfeuchtigkeit 60%
Luftdruck 1020 hPa
Sichtweite 10 km oder mehr
keine Wolken unter 1500 m und keine Kumulonimbus oder Gewitterwolken

METAR: LKKB 051930Z 14001KT CAVOK 19/11 Q1020 NOSIG

Zeit: 21:42 (19:42 UTC)

Prognose

Neuester Wetterbericht von vor 2 Stunden und 42 Minuten, um 17:00 UTC
Gültige Prognose vom 05 um 18 UTC bis 06 um 18 UTC
Wind 6 kt aus Ost
Sichtweite 10 km oder mehr
keine Wolken unter 1500 m und keine Kumulonimbus oder Gewitterwolken
Übergehend zu
vom 06 um 06 UTC bis 06 um 08 UTC
Wind 6 kt aus Nord

TAF: LKKB 051700Z 0518/0618 10006KT CAVOK BECMG 0606/0608 01006KT

Wetterbeobachtungen und Prognosen von mehr als 4000 Flughäfen (METAR und TAF Bericht).

Die verfügbaren Stationen werden durch gelbe und rote Markierungen auf der Karte dargestellt.

Führen Sie die Maus auf sie, um den Namen der Station zu sehen.

Darauf klicken, um die Beobachtung von Wetterbeobachtungen und Prognosen zu sehen.

Um die Karte zu ändern : klicken Sie auf den grünen Tasten mit einem schwarzen Kreuz Zum Vergrößern, auf den grünen Button mit einem Gedankenstrich zu verkleinern, oder auf die grünen Pfeile für benachbarte Karten.


METAR-TAF: